Time;durP1;ratioP1;P1;durP2;ratioP2;P2;SDS_P1;SDS_P2;PMS_P1;PMS_P2;Temp;Humidity;BMP_temperature;BMP_pressure;BME280_temperature;BME280_humidity;BME280_pressure;Samples;Min_cycle;Max_cycle;Signal;HPM_P1;HPM_P2
2022/08/15 00:01:26;;;;;;;6.28;4.95;;;;;;;21.30;54.63;98025.31;5113797;27;20040;-91
2022/08/15 00:03:54;;;;;;;8.93;5.50;;;;;;;21.28;55.56;98005.63;5118250;27;20035;-91
2022/08/15 00:06:23;;;;;;;6.72;5.05;;;;;;;21.22;55.66;98004.28;5117070;27;20036;-91
2022/08/15 00:08:54;;;;;;;6.50;4.75;;;;;;;21.25;56.37;98036.50;5115439;27;20508;-92
2022/08/15 00:11:24;;;;;;;8.73;4.78;;;;;;;21.21;56.65;98048.56;5115789;27;20043;-91
2022/08/15 00:13:53;;;;;;;7.05;4.90;;;;;;;21.18;56.31;98047.94;5115826;27;20710;-92
2022/08/15 00:16:19;;;;;;;6.13;4.90;;;;;;;21.09;56.80;98026.06;5116387;27;20503;-93
2022/08/15 00:18:46;;;;;;;6.45;4.90;;;;;;;21.26;56.49;98029.25;5117405;27;20039;-92
2022/08/15 00:21:14;;;;;;;7.32;5.30;;;;;;;21.25;56.67;98036.50;5116054;27;20043;-92
2022/08/15 00:23:41;;;;;;;7.05;5.05;;;;;;;21.20;57.71;98040.56;5117303;27;20118;-91
2022/08/15 00:26:10;;;;;;;5.97;4.90;;;;;;;21.05;57.65;98021.91;5116249;27;20036;-92
2022/08/15 00:28:37;;;;;;;7.28;4.88;;;;;;;21.10;58.25;98025.09;5114798;28;20401;-92
2022/08/15 00:31:05;;;;;;;6.15;4.72;;;;;;;21.05;56.92;98013.78;5115283;27;20104;-93
2022/08/15 00:33:32;;;;;;;8.60;5.70;;;;;;;20.99;57.49;98014.31;5115340;27;20046;-92
2022/08/15 00:35:58;;;;;;;8.80;5.00;;;;;;;20.99;57.73;98024.25;5120492;27;20040;-91
2022/08/15 00:38:27;;;;;;;8.63;5.43;;;;;;;20.99;57.40;98037.75;5115594;28;20040;-89
2022/08/15 00:43:58;;;;;;;7.00;5.18;;;;;;;21.03;57.04;98042.78;5144684;27;20367;-90
2022/08/15 00:46:25;;;;;;;6.97;5.07;;;;;;;21.02;57.09;98041.09;5119475;28;20086;-89
2022/08/15 00:48:52;;;;;;;7.53;4.88;;;;;;;21.00;57.43;98042.19;5124716;27;20085;-90
2022/08/15 00:51:22;;;;;;;6.95;5.20;;;;;;;20.95;56.79;98047.09;5123450;27;20119;-92
2022/08/15 00:53:53;;;;;;;9.18;5.10;;;;;;;21.02;57.20;98056.44;5120195;27;20044;-90
2022/08/15 00:56:21;;;;;;;7.85;5.10;;;;;;;20.89;57.35;98053.88;5120585;28;20093;-90
2022/08/15 00:58:47;;;;;;;6.50;4.80;;;;;;;20.88;57.62;98060.25;5123345;28;20122;-90
2022/08/15 01:01:15;;;;;;;8.70;5.45;;;;;;;20.78;57.92;98045.78;5125879;28;20077;-90
2022/08/15 01:03:44;;;;;;;8.48;5.10;;;;;;;20.69;57.99;98040.13;5121356;28;20513;-89
2022/08/15 01:06:11;;;;;;;6.78;4.82;;;;;;;20.60;58.58;98032.75;5124461;27;20130;-91
2022/08/15 01:08:40;;;;;;;8.40;5.40;;;;;;;20.66;58.99;98043.06;5121752;27;20032;-93
2022/08/15 01:11:11;;;;;;;6.70;4.90;;;;;;;20.54;59.56;98035.91;5119733;28;20035;-89
2022/08/15 01:13:38;;;;;;;7.47;5.03;;;;;;;20.53;60.30;98058.50;5122977;28;20388;-92
2022/08/15 01:16:04;;;;;;;7.80;5.10;;;;;;;20.39;60.48;98069.53;5123739;27;20096;-90
2022/08/15 01:18:31;;;;;;;7.97;5.75;;;;;;;20.52;58.27;98090.06;5124785;27;20841;-91
2022/08/15 01:21:04;;;;;;;7.10;5.00;;;;;;;20.55;57.20;98071.88;5120687;27;20118;-91
2022/08/15 01:23:40;;;;;;;7.57;5.43;;;;;;;20.69;58.04;98086.06;5125114;28;20054;-92
2022/08/15 01:26:08;;;;;;;6.78;4.65;;;;;;;20.78;56.60;98078.19;5115141;28;20039;-92
2022/08/15 01:28:38;;;;;;;8.05;4.85;;;;;;;20.89;56.70;98092.56;5120531;28;20036;-90
2022/08/15 01:31:07;;;;;;;6.45;4.60;;;;;;;20.87;56.78;98094.53;5120719;28;20051;-91
2022/08/15 01:33:37;;;;;;;6.63;4.63;;;;;;;20.81;56.35;98096.88;5126647;27;20561;-91
2022/08/15 01:36:05;;;;;;;6.90;5.15;;;;;;;20.76;56.31;98082.88;5122687;27;20443;-90
2022/08/15 01:38:34;;;;;;;7.10;5.15;;;;;;;20.92;55.72;98107.66;5123436;28;20461;-91
2022/08/15 01:41:08;;;;;;;6.90;4.97;;;;;;;20.85;55.93;98091.09;5120787;27;20753;-92
2022/08/15 01:43:42;;;;;;;7.22;4.90;;;;;;;20.91;55.76;98093.31;5122141;28;20040;-91
2022/08/15 01:46:10;;;;;;;7.82;4.85;;;;;;;20.98;55.72;98106.31;5118463;28;20044;-92
2022/08/15 01:48:41;;;;;;;6.72;4.78;;;;;;;20.99;56.07;98103.50;5123247;28;20047;-91
2022/08/15 01:51:10;;;;;;;7.03;4.75;;;;;;;20.84;55.99;98078.56;5120225;28;20039;-92
2022/08/15 01:53:39;;;;;;;;;;;;;;;21.00;56.99;98101.66;5115262;27;20028;-93
2022/08/15 01:56:11;;;;;;;6.80;5.15;;;;;;;20.93;56.46;98085.06;5109712;28;19923;-93
2022/08/15 01:58:43;;;;;;;8.07;5.18;;;;;;;20.90;56.57;98094.25;5109027;28;20040;-90
2022/08/15 02:01:12;;;;;;;7.32;4.95;;;;;;;20.73;56.80;98086.66;5108466;28;20032;-92
2022/08/15 02:03:41;;;;;;;7.20;5.22;;;;;;;20.70;57.06;98093.16;5106604;28;20062;-92
2022/08/15 02:06:10;;;;;;;8.00;5.18;;;;;;;20.56;57.64;98090.69;5104127;28;20778;-93
2022/08/15 02:08:36;;;;;;;;;;;;;;;20.59;58.18;98100.41;5111351;28;20404;-93
2022/08/15 02:11:04;;;;;;;7.57;5.18;;;;;;;20.50;58.98;98096.56;5101761;28;19928;-91
2022/08/15 02:13:30;;;;;;;7.68;5.00;;;;;;;20.46;59.04;98092.38;5103412;28;20126;-91
2022/08/15 02:15:59;;;;;;;9.25;5.28;;;;;;;20.35;59.93;98086.97;5104050;28;20044;-89
2022/08/15 02:18:24;;;;;;;6.47;5.00;;;;;;;20.21;60.59;98088.91;5108095;28;20067;-90
2022/08/15 02:20:50;;;;;;;7.57;5.25;;;;;;;20.15;61.16;98075.88;5105057;28;20501;-93
2022/08/15 02:23:17;;;;;;;7.65;5.32;;;;;;;20.07;61.51;98076.44;5106475;28;20423;-92
2022/08/15 02:25:43;;;;;;;7.13;5.28;;;;;;;20.00;61.75;98082.44;5105316;28;20116;-90
2022/08/15 02:28:09;;;;;;;7.15;5.20;;;;;;;20.03;61.72;98071.41;5104812;28;20035;-90
2022/08/15 02:30:35;;;;;;;8.10;5.88;;;;;;;19.81;62.62;98059.56;5107390;28;20078;-90
2022/08/15 02:33:05;;;;;;;6.95;5.05;;;;;;;19.56;63.22;98038.06;5106835;28;20053;-92
2022/08/15 02:35:32;;;;;;;7.25;5.57;;;;;;;19.65;63.90;98056.28;5103535;28;20170;-91
2022/08/15 02:38:01;;;;;;;7.15;5.32;;;;;;;19.48;64.08;98038.69;5103643;28;20059;-91
2022/08/15 02:40:28;;;;;;;8.55;5.38;;;;;;;19.42;64.62;98050.75;5107007;28;20059;-91
2022/08/15 02:42:55;;;;;;;8.45;5.78;;;;;;;19.36;65.49;98045.81;5102393;28;20046;-91
2022/08/15 02:45:21;;;;;;;6.57;4.88;;;;;;;19.37;65.49;98062.88;5104441;28;20044;-90
2022/08/15 02:47:47;;;;;;;7.03;5.30;;;;;;;19.55;64.81;98068.72;5107897;28;20454;-91
2022/08/15 02:50:16;;;;;;;7.53;5.55;;;;;;;19.52;65.28;98077.03;5103014;28;20508;-90
2022/08/15 02:52:45;;;;;;;8.73;5.50;;;;;;;19.53;65.47;98078.78;5104480;28;20512;-91
2022/08/15 02:55:12;;;;;;;7.90;5.13;;;;;;;19.36;66.42;98062.00;5106827;28;20044;-91
2022/08/15 02:57:38;;;;;;;6.72;5.45;;;;;;;19.27;65.83;98068.09;5106952;28;20043;-89
2022/08/15 03:00:09;;;;;;;9.20;5.90;;;;;;;19.33;66.52;98072.16;5105497;28;20040;-90
2022/08/15 03:02:48;;;;;;;8.40;5.88;;;;;;;19.16;66.46;98060.78;5104511;28;20040;-91
2022/08/15 03:05:16;;;;;;;7.78;5.30;;;;;;;18.99;66.37;98043.16;5103462;28;20032;-92
2022/08/15 03:07:44;;;;;;;9.13;5.68;;;;;;;19.11;66.30;98054.88;5102494;28;20492;-92
2022/08/15 03:10:10;;;;;;;7.33;5.23;;;;;;;19.19;66.42;98059.69;5107026;28;20048;-91
2022/08/15 03:12:47;;;;;;;7.43;5.30;;;;;;;19.16;67.12;98068.03;5107130;28;20457;-91
2022/08/15 03:15:13;;;;;;;8.63;5.82;;;;;;;18.97;67.97;98055.88;5105162;28;20039;-91
2022/08/15 03:17:39;;;;;;;8.85;5.65;;;;;;;19.04;68.02;98067.94;5107827;28;20104;-89
2022/08/15 03:20:07;;;;;;;8.43;5.45;;;;;;;18.87;67.84;98063.78;5105683;28;20036;-90
2022/08/15 03:22:44;;;;;;;7.43;5.88;;;;;;;19.04;67.67;98075.16;5107684;28;20089;-91
2022/08/15 03:25:10;;;;;;;7.70;4.93;;;;;;;19.03;66.92;98068.91;5102987;28;20067;-91
2022/08/15 03:27:36;;;;;;;7.95;5.60;;;;;;;19.01;66.52;98057.38;5104281;28;20532;-91
2022/08/15 03:30:07;;;;;;;7.18;5.47;;;;;;;19.14;66.62;98072.66;5105234;28;20063;-93
2022/08/15 03:32:41;;;;;;;7.28;5.22;;;;;;;19.08;66.67;98066.75;5104755;28;20412;-91
2022/08/15 03:35:09;;;;;;;9.38;5.78;;;;;;;19.03;66.49;98044.66;5105973;28;20496;-93
2022/08/15 03:37:34;;;;;;;7.68;5.63;;;;;;;19.18;66.38;98068.78;5103828;28;20036;-89
2022/08/15 03:40:03;;;;;;;7.40;5.65;;;;;;;19.21;66.30;98060.44;5105925;28;20035;-91
2022/08/15 03:42:29;;;;;;;6.97;5.20;;;;;;;19.22;66.22;98065.72;5106413;28;20492;-91
2022/08/15 03:44:56;;;;;;;8.52;5.32;;;;;;;19.24;66.14;98079.09;5103755;28;20043;-90
2022/08/15 03:47:21;;;;;;;9.05;5.40;;;;;;;19.20;66.13;98061.44;5103278;28;20060;-91
2022/08/15 03:49:47;;;;;;;7.50;5.55;;;;;;;19.14;65.86;98067.28;5101879;28;20062;-90
2022/08/15 03:52:13;;;;;;;7.40;5.30;;;;;;;19.10;66.27;98055.84;5103608;28;20051;-92
2022/08/15 03:54:40;;;;;;;10.32;5.30;;;;;;;19.09;65.86;98057.69;5107022;28;20107;-90
2022/08/15 03:57:07;;;;;;;7.30;5.55;;;;;;;19.15;65.66;98063.59;5100582;28;20121;-91
2022/08/15 03:59:34;;;;;;;8.13;5.57;;;;;;;19.23;66.28;98074.66;5102402;28;20075;-91
2022/08/15 04:02:00;;;;;;;8.40;5.47;;;;;;;19.17;66.22;98062.53;5104072;28;20044;-90
2022/08/15 04:04:26;;;;;;;7.22;5.47;;;;;;;19.17;66.58;98070.59;5100611;28;20055;-91
2022/08/15 04:06:52;;;;;;;7.60;5.40;;;;;;;19.23;66.16;98078.22;5100386;28;20039;-92
2022/08/15 04:09:18;;;;;;;7.45;5.72;;;;;;;19.07;66.56;98065.00;5102260;28;20096;-90
2022/08/15 04:11:45;;;;;;;8.63;5.68;;;;;;;19.20;66.83;98072.22;5106109;28;20043;-90
2022/08/15 04:14:13;;;;;;;7.32;5.35;;;;;;;19.17;66.72;98076.00;5104112;28;20083;-90
2022/08/15 04:16:39;;;;;;;7.40;5.37;;;;;;;19.15;66.75;98068.97;5102767;27;20032;-91
2022/08/15 04:19:05;;;;;;;9.18;5.95;;;;;;;19.09;67.04;98071.16;5106733;28;20039;-91
2022/08/15 04:21:32;;;;;;;7.57;5.80;;;;;;;19.11;67.40;98089.06;5103992;28;20051;-90
2022/08/15 04:23:58;;;;;;;7.70;5.07;;;;;;;19.08;66.69;98076.66;5106600;28;20035;-91
2022/08/15 04:26:24;;;;;;;7.57;5.35;;;;;;;19.14;66.10;98087.00;5103121;28;20101;-89
2022/08/15 04:28:50;;;;;;;7.15;5.10;;;;;;;19.14;66.01;98088.81;5103293;28;20032;-89
2022/08/15 04:31:20;;;;;;;8.27;5.63;;;;;;;19.14;65.64;98083.44;5106956;28;20103;-91
2022/08/15 04:33:47;;;;;;;7.13;5.40;;;;;;;19.23;65.75;98093.53;5100198;28;20161;-91
2022/08/15 04:36:15;;;;;;;7.93;5.53;;;;;;;19.22;65.46;98089.13;5103574;28;20055;-90
2022/08/15 04:38:42;;;;;;;8.15;5.38;;;;;;;19.23;65.94;98096.22;5104870;28;20106;-90
2022/08/15 04:41:09;;;;;;;7.13;5.63;;;;;;;19.18;66.26;98083.09;5106443;28;20063;-91
2022/08/15 04:43:37;;;;;;;7.20;5.22;;;;;;;19.25;66.57;98091.59;5104110;28;20041;-91
2022/08/15 04:46:04;;;;;;;10.00;5.80;;;;;;;19.21;66.68;98090.94;5103274;28;20069;-91
2022/08/15 04:48:32;;;;;;;9.43;5.85;;;;;;;19.26;67.13;98098.72;5102977;28;20044;-90
2022/08/15 04:50:59;;;;;;;6.93;5.45;;;;;;;19.35;67.09;98103.44;5108770;28;20435;-91
2022/08/15 04:53:27;;;;;;;9.13;5.78;;;;;;;19.36;67.09;98105.13;5103526;28;20044;-90
2022/08/15 04:55:55;;;;;;;7.40;5.20;;;;;;;19.34;67.64;98101.69;5103736;28;20122;-91
2022/08/15 04:58:22;;;;;;;8.68;5.60;;;;;;;19.40;67.46;98114.72;5106148;28;20566;-90
2022/08/15 05:00:54;;;;;;;7.95;5.50;;;;;;;19.30;67.97;98102.91;5103562;28;20031;-92
2022/08/15 05:03:20;;;;;;;8.60;6.03;;;;;;;19.37;68.93;98106.03;5101967;28;20031;-92
2022/08/15 05:05:51;;;;;;;8.43;6.20;;;;;;;19.30;69.66;98108.31;5103646;28;20384;-91
2022/08/15 05:08:18;;;;;;;8.73;5.90;;;;;;;19.32;70.23;98111.72;5098938;28;20472;-91
2022/08/15 05:10:49;;;;;;;7.97;6.07;;;;;;;19.25;70.49;98110.47;5099343;28;20048;-91
2022/08/15 05:13:17;;;;;;;8.77;6.47;;;;;;;19.28;71.12;98121.03;5103963;28;20084;-90
2022/08/15 05:15:45;;;;;;;10.60;6.55;;;;;;;19.20;72.07;98116.19;5102823;28;20067;-91
2022/08/15 05:18:12;;;;;;;8.45;6.40;;;;;;;19.25;71.94;98123.94;5101813;28;20068;-92
2022/08/15 05:20:41;;;;;;;8.18;6.32;;;;;;;19.31;71.05;98128.03;5105718;28;20047;-91
2022/08/15 05:23:11;;;;;;;9.55;6.18;;;;;;;19.30;70.85;98116.41;5104429;28;20028;-92
2022/08/15 05:25:39;;;;;;;8.88;6.53;;;;;;;19.40;71.12;98117.41;5102921;28;20044;-91
2022/08/15 05:28:06;;;;;;;11.70;6.68;;;;;;;19.44;70.58;98118.91;5105035;28;20073;-92
2022/08/15 05:30:32;;;;;;;9.32;6.15;;;;;;;19.66;70.26;98123.56;5106254;28;20072;-91
2022/08/15 05:33:05;;;;;;;8.27;6.32;;;;;;;19.93;69.67;98124.34;5104448;28;20127;-91
2022/08/15 05:35:31;;;;;;;9.18;6.20;;;;;;;20.23;68.68;98116.63;5104801;28;20044;-91
2022/08/15 05:38:00;;;;;;;12.63;7.63;;;;;;;20.56;67.20;98116.81;5108462;28;20126;-90
2022/08/15 05:40:38;;;;;;;9.88;7.15;;;;;;;20.90;65.66;98113.19;5109885;28;20044;-91
2022/08/15 05:43:11;;;;;;;9.07;7.10;;;;;;;21.00;65.14;98107.91;5103010;28;20052;-91
2022/08/15 05:45:42;;;;;;;9.65;5.85;;;;;;;21.10;63.88;98098.09;5106596;28;20036;-89
2022/08/15 05:48:14;;;;;;;10.13;6.63;;;;;;;21.29;63.95;98104.69;5104955;28;20489;-92
2022/08/15 05:50:50;;;;;;;9.85;5.97;;;;;;;21.49;63.53;98114.78;5108138;28;20044;-91
2022/08/15 05:53:27;;;;;;;8.95;5.90;;;;;;;21.58;61.10;98096.03;5107687;28;20494;-92
2022/08/15 05:56:03;;;;;;;8.05;5.60;;;;;;;21.77;60.91;98106.22;5105234;28;20760;-94
2022/08/15 05:58:42;;;;;;;8.13;6.03;;;;;;;21.79;60.23;98091.56;5104236;28;20439;-91
2022/08/15 06:01:14;;;;;;;9.05;5.63;;;;;;;21.95;59.22;98092.00;5103344;28;20040;-90
2022/08/15 06:03:44;;;;;;;8.73;5.95;;;;;;;22.15;59.08;98113.81;5106572;28;20047;-92
2022/08/15 06:06:12;;;;;;;7.47;5.70;;;;;;;22.25;58.69;98106.66;5106481;28;20040;-91
2022/08/15 06:08:41;;;;;;;;;;;;;;;22.39;59.29;98105.47;5110143;28;20100;-90
2022/08/15 06:11:13;;;;;;;7.95;5.65;;;;;;;22.52;59.19;98098.00;5103949;28;19996;-93
2022/08/15 06:13:44;;;;;;;8.13;6.00;;;;;;;22.66;58.84;98096.81;5109094;28;20062;-91
2022/08/15 06:16:16;;;;;;;7.57;5.50;;;;;;;22.59;57.13;98063.09;5105194;28;20039;-92
2022/08/15 06:18:43;;;;;;;8.65;5.50;;;;;;;22.74;56.29;98085.28;5103953;28;20118;-93
2022/08/15 06:21:19;;;;;;;7.32;5.43;;;;;;;22.66;56.51;98096.81;5107324;28;20135;-92
2022/08/15 06:23:55;;;;;;;10.32;6.50;;;;;;;22.71;56.48;98099.97;5107181;28;20396;-92
2022/08/15 06:26:36;;;;;;;12.52;7.88;;;;;;;22.79;54.89;98090.28;5106168;28;20066;-91
2022/08/15 06:29:18;;;;;;;12.77;8.38;;;;;;;22.93;54.90;98095.34;5106019;28;20046;-91
2022/08/15 06:31:48;;;;;;;13.73;9.10;;;;;;;23.07;53.17;98094.16;5104836;28;20567;-92
2022/08/15 06:34:28;;;;;;;10.10;7.15;;;;;;;23.19;52.69;98086.78;5109382;28;20036;-93
2022/08/15 06:36:59;;;;;;;8.52;5.90;;;;;;;23.15;51.60;98100.59;5106066;28;20031;-92
2022/08/15 06:39:36;;;;;;;10.55;7.38;;;;;;;22.88;52.47;98078.63;5106810;28;20442;-92
2022/08/15 06:42:10;;;;;;;10.27;6.78;;;;;;;23.14;52.78;98088.06;5108193;28;20101;-93
2022/08/15 06:44:37;;;;;;;16.13;10.20;;;;;;;23.31;51.45;98083.84;5106543;28;20063;-93
2022/08/15 06:47:05;;;;;;;19.67;14.25;;;;;;;23.57;52.12;98097.75;5109220;28;20438;-91
2022/08/15 06:49:32;;;;;;;13.00;7.72;;;;;;;23.62;51.25;98088.31;5105865;28;20039;-93
2022/08/15 06:51:59;;;;;;;9.30;6.87;;;;;;;23.61;51.11;98089.31;5105631;28;20047;-92
2022/08/15 06:54:27;;;;;;;9.82;7.07;;;;;;;23.87;51.83;98106.78;5103513;28;20090;-91
2022/08/15 06:56:56;;;;;;;;;;;;;;;23.77;50.66;98101.38;5105843;28;20043;-93
2022/08/15 06:59:36;;;;;;;9.30;5.63;;;;;;;23.65;50.79;98101.59;5105684;28;19973;-91
2022/08/15 07:02:16;;;;;;;7.93;5.55;;;;;;;23.88;50.51;98115.81;5108623;28;20134;-92
2022/08/15 07:04:53;;;;;;;8.55;5.78;;;;;;;23.96;51.02;98119.53;5104248;28;20888;-92
2022/08/15 07:07:27;;;;;;;7.53;6.20;;;;;;;24.06;51.01;98108.66;5108009;28;20519;-92
2022/08/15 07:10:01;;;;;;;7.43;5.75;;;;;;;24.30;50.34;98097.34;5109833;28;20042;-91
2022/08/15 07:12:45;;;;;;;12.63;6.10;;;;;;;24.29;50.36;98109.25;5104563;28;20046;-91
2022/08/15 07:15:20;;;;;;;7.40;5.43;;;;;;;24.57;50.00;98112.06;5106128;28;20047;-90
2022/08/15 07:17:50;;;;;;;8.55;5.95;;;;;;;24.32;50.71;98108.94;5104648;28;20064;-92
2022/08/15 07:20:17;;;;;;;8.10;5.68;;;;;;;24.63;49.77;98111.50;5101087;28;20063;-91
2022/08/15 07:22:43;;;;;;;7.47;5.30;;;;;;;24.69;49.48;98121.78;5103954;28;20046;-93
2022/08/15 07:25:11;;;;;;;7.57;5.22;;;;;;;24.68;50.85;98127.34;5107938;28;20039;-94
2022/08/15 07:27:37;;;;;;;7.43;5.40;;;;;;;24.81;49.08;98114.34;5104244;28;20061;-91
2022/08/15 07:30:15;;;;;;;6.78;5.40;;;;;;;25.04;48.53;98105.78;5106194;28;20051;-93
2022/08/15 07:32:50;;;;;;;7.43;5.25;;;;;;;25.26;48.14;98105.44;5110232;28;20096;-93
2022/08/15 07:35:23;;;;;;;10.13;5.70;;;;;;;25.04;48.86;98087.59;5110995;28;20485;-92
2022/08/15 07:37:56;;;;;;;7.18;5.50;;;;;;;25.07;48.42;98109.09;5111356;28;20078;-92
2022/08/15 07:40:25;;;;;;;7.55;5.75;;;;;;;25.01;49.06;98083.31;5105136;28;20067;-92
2022/08/15 07:42:52;;;;;;;7.90;5.72;;;;;;;25.17;48.44;98098.16;5103487;28;20052;-92
2022/08/15 07:45:25;;;;;;;8.30;5.57;;;;;;;25.21;48.35;98103.16;5104256;28;20078;-94
2022/08/15 07:47:59;;;;;;;7.43;5.90;;;;;;;25.28;47.39;98111.56;5109840;28;20046;-90
2022/08/15 07:50:35;;;;;;;7.03;5.15;;;;;;;25.51;47.58;98103.88;5107966;28;20481;-93
2022/08/15 07:53:08;;;;;;;8.77;5.28;;;;;;;25.65;47.71;98096.19;5102983;28;20485;-93
2022/08/15 07:55:34;;;;;;;7.78;5.88;;;;;;;25.74;47.08;98090.69;5107669;28;20089;-93
2022/08/15 07:58:04;;;;;;;7.97;5.80;;;;;;;25.88;47.18;98097.50;5101952;28;20035;-91
2022/08/15 08:00:34;;;;;;;7.10;5.53;;;;;;;26.10;45.59;98096.16;5106371;28;20048;-93
2022/08/15 08:03:09;;;;;;;7.50;5.43;;;;;;;26.36;44.83;98107.13;5105280;28;20067;-90
2022/08/15 08:05:47;;;;;;;9.55;5.43;;;;;;;26.24;44.55;98102.94;5105861;28;20041;-90
2022/08/15 08:08:14;;;;;;;8.02;5.85;;;;;;;26.05;44.80;98114.00;5102797;28;20486;-93
2022/08/15 08:10:48;;;;;;;6.60;5.20;;;;;;;25.99;45.64;98091.81;5108217;28;20130;-92
2022/08/15 08:13:35;;;;;;;7.13;5.32;;;;;;;26.10;46.08;98095.31;5104497;28;20031;-89
2022/08/15 08:16:06;;;;;;;6.53;5.25;;;;;;;26.29;44.05;98089.69;5104747;28;20479;-92
2022/08/15 08:18:43;;;;;;;6.43;4.90;;;;;;;26.40;43.82;98094.88;5106312;28;20127;-91
2022/08/15 08:21:13;;;;;;;7.35;5.30;;;;;;;26.66;42.76;98102.28;5105660;28;20036;-90
2022/08/15 08:23:42;;;;;;;9.55;5.28;;;;;;;26.79;42.98;98110.88;5102515;28;20036;-92
2022/08/15 08:26:26;;;;;;;7.75;5.72;;;;;;;26.68;42.98;98123.94;5104723;28;20040;-91
2022/08/15 08:29:00;;;;;;;6.05;4.70;;;;;;;26.86;42.55;98127.47;5107811;28;20095;-91
2022/08/15 08:31:36;;;;;;;8.98;5.75;;;;;;;26.90;41.39;98139.78;5100950;28;20040;-92
2022/08/15 08:34:13;;;;;;;7.78;5.00;;;;;;;26.91;40.51;98121.53;5108131;28;20046;-90
2022/08/15 08:36:50;;;;;;;7.18;4.50;;;;;;;26.83;41.04;98131.38;5103508;28;20052;-92
2022/08/15 08:39:32;;;;;;;5.88;4.85;;;;;;;26.97;40.34;98142.72;5101551;28;20039;-91
2022/08/15 08:42:06;;;;;;;6.65;4.82;;;;;;;27.05;39.66;98149.06;5105153;28;20419;-91
2022/08/15 08:44:39;;;;;;;5.75;4.72;;;;;;;27.03;40.20;98142.06;5107580;28;20565;-92
2022/08/15 08:47:24;;;;;;;7.10;5.55;;;;;;;26.96;39.80;98141.88;5108605;28;20040;-90
2022/08/15 08:50:06;;;;;;;7.03;5.07;;;;;;;27.25;39.93;98157.91;5107114;28;20040;-92
2022/08/15 08:52:38;;;;;;;6.75;4.90;;;;;;;27.28;40.48;98161.34;5105221;28;20039;-91
2022/08/15 08:55:08;;;;;;;6.32;4.97;;;;;;;27.33;39.87;98165.31;5108783;28;20035;-90
2022/08/15 08:57:38;;;;;;;6.25;4.82;;;;;;;27.49;39.86;98175.44;5102571;28;20035;-91
2022/08/15 09:00:10;;;;;;;7.35;5.38;;;;;;;27.36;39.82;98181.34;5105187;28;20048;-91
2022/08/15 09:02:41;;;;;;;6.85;5.00;;;;;;;27.32;40.07;98173.66;5103848;28;20389;-89
2022/08/15 09:05:14;;;;;;;7.05;5.07;;;;;;;27.40;40.94;98199.13;5106890;28;20051;-91
2022/08/15 09:07:48;;;;;;;6.47;5.07;;;;;;;27.19;40.87;98194.00;5105606;28;20051;-92
2022/08/15 09:10:22;;;;;;;6.45;5.05;;;;;;;27.11;41.05;98199.44;5108215;28;20067;-92
2022/08/15 09:15:56;;;;;;;6.85;4.80;;;;;;;27.38;41.38;98189.38;5146439;27;20879;-90
2022/08/15 09:18:26;;;;;;;6.82;5.10;;;;;;;27.23;42.22;98192.72;5141473;27;20084;-91
2022/08/15 09:20:52;;;;;;;5.93;5.13;;;;;;;27.33;41.96;98186.31;5139673;27;20088;-91
2022/08/15 09:23:20;;;;;;;6.75;5.13;;;;;;;27.42;42.17;98185.31;5146580;27;20035;-92
2022/08/15 09:25:57;;;;;;;7.55;5.40;;;;;;;27.17;42.62;98157.84;5138917;27;20044;-91
2022/08/15 09:28:31;;;;;;;8.48;5.55;;;;;;;27.25;43.10;98157.91;5140827;27;20067;-91
2022/08/15 09:31:04;;;;;;;7.68;5.18;;;;;;;27.43;43.26;98159.72;5148115;27;20091;-91
2022/08/15 09:34:00;;;;;;;9.93;5.43;;;;;;;27.69;43.72;98156.06;5140788;27;20510;-90
2022/08/15 09:36:55;;;;;;;7.72;5.60;;;;;;;27.71;45.41;98130.28;5142923;27;20445;-92
2022/08/15 09:39:41;;;;;;;8.13;5.78;;;;;;;27.45;46.88;98123.06;5145439;27;20043;-91
2022/08/15 09:42:21;;;;;;;9.77;5.90;;;;;;;27.28;47.56;98110.31;5131903;27;20129;-92
2022/08/15 09:45:00;;;;;;;7.30;5.70;;;;;;;27.60;47.61;98109.59;5145405;27;20384;-90
2022/08/15 09:47:51;;;;;;;8.80;5.93;;;;;;;28.09;47.37;98102.59;5145033;27;20043;-92
2022/08/15 09:50:33;;;;;;;8.68;5.72;;;;;;;28.58;47.19;98098.00;5141819;27;20042;-92
2022/08/15 09:53:07;;;;;;;8.20;5.65;;;;;;;29.08;46.08;98091.41;5139587;27;20039;-90
2022/08/15 09:55:44;;;;;;;6.97;6.05;;;;;;;28.92;45.80;98075.00;5142075;27;20473;-93
2022/08/15 09:58:14;;;;;;;6.85;5.70;;;;;;;29.02;45.15;98067.47;5142198;27;20515;-92
2022/08/15 10:00:53;;;;;;;7.75;5.75;;;;;;;29.04;44.85;98056.34;5141199;27;20099;-92
2022/08/15 10:03:23;;;;;;;11.10;5.68;;;;;;;29.01;45.64;98067.63;5139821;27;20492;-93
2022/08/15 10:06:03;;;;;;;7.07;5.90;;;;;;;28.09;47.14;98081.56;5144635;27;20074;-92
2022/08/15 10:09:02;;;;;;;7.25;5.80;;;;;;;28.38;46.86;98094.72;5142623;27;20059;-92
2022/08/15 10:11:31;;;;;;;9.10;6.05;;;;;;;28.69;47.10;98091.28;5142547;27;20568;-92
2022/08/15 10:14:05;;;;;;;8.70;5.50;;;;;;;28.97;46.93;98078.06;5141141;27;20066;-92
2022/08/15 10:16:50;;;;;;;8.95;6.03;;;;;;;29.14;46.16;98076.16;5141309;27;20044;-93
2022/08/15 10:19:34;;;;;;;7.47;5.35;;;;;;;28.93;45.85;98086.81;5137214;27;20784;-93
2022/08/15 10:22:24;;;;;;;8.73;6.07;;;;;;;29.32;45.13;98091.50;5138476;27;20047;-92
2022/08/15 10:25:26;;;;;;;7.45;5.47;;;;;;;29.68;44.28;98103.66;5141401;27;20061;-92
2022/08/15 10:28:05;;;;;;;6.72;5.30;;;;;;;30.01;42.96;98087.03;5125139;27;20035;-89
2022/08/15 10:30:33;;;;;;;7.00;5.57;;;;;;;30.30;43.14;98088.25;5126305;27;20031;-92
2022/08/15 10:33:00;;;;;;;8.70;5.50;;;;;;;30.43;43.28;98077.50;5126292;27;20062;-92
2022/08/15 10:35:35;;;;;;;9.35;5.97;;;;;;;30.16;43.44;98067.06;5126308;27;20040;-91
2022/08/15 10:38:03;;;;;;;8.25;5.63;;;;;;;30.02;43.91;98077.78;5125919;27;20426;-92
2022/08/15 10:40:43;;;;;;;;;;;;;;;29.90;43.47;98080.06;5129360;27;20035;-91
2022/08/15 10:43:27;;;;;;;7.07;5.40;;;;;;;29.98;43.96;98070.97;5125399;27;19928;-92
2022/08/15 10:45:59;;;;;;;7.82;5.60;;;;;;;30.07;43.82;98066.28;5128660;27;20057;-92
2022/08/15 10:48:43;;;;;;;8.18;5.68;;;;;;;30.41;43.32;98059.53;5128701;27;20036;-93
2022/08/15 10:51:23;;;;;;;8.00;5.63;;;;;;;30.79;42.10;98051.25;5128881;27;20129;-92
2022/08/15 10:54:01;;;;;;;8.48;5.13;;;;;;;30.83;41.95;98053.41;5129950;27;20035;-92
2022/08/15 10:56:33;;;;;;;8.23;5.57;;;;;;;30.44;42.31;98068.22;5128233;27;20118;-91
2022/08/15 10:59:02;;;;;;;8.23;5.25;;;;;;;30.49;42.23;98064.91;5125973;27;20100;-92
2022/08/15 11:01:32;;;;;;;7.47;5.40;;;;;;;30.36;42.40;98045.50;5129115;27;20039;-93
2022/08/15 11:04:02;;;;;;;7.25;5.28;;;;;;;29.80;43.03;98051.22;5125795;27;20039;-93
2022/08/15 11:06:30;;;;;;;8.20;5.25;;;;;;;29.00;45.27;98068.66;5127432;27;20055;-92
2022/08/15 11:09:04;;;;;;;7.88;5.32;;;;;;;28.96;45.05;98081.00;5124968;27;20036;-93
2022/08/15 11:11:35;;;;;;;6.25;5.13;;;;;;;29.37;45.33;98069.94;5126972;27;20512;-93
2022/08/15 11:14:08;;;;;;;7.65;5.15;;;;;;;29.44;44.43;98049.00;5129526;27;20055;-91
2022/08/15 11:16:37;;;;;;;7.05;5.28;;;;;;;29.69;43.94;98058.81;5124419;27;20035;-92
2022/08/15 11:19:16;;;;;;;7.28;5.25;;;;;;;29.52;43.88;98059.91;5126548;27;20042;-92
2022/08/15 11:21:49;;;;;;;6.95;5.85;;;;;;;29.76;44.04;98058.09;5128210;27;20039;-93
2022/08/15 11:24:25;;;;;;;8.27;5.47;;;;;;;29.83;44.07;98029.78;5130521;27;20038;-91
2022/08/15 11:27:08;;;;;;;10.00;5.60;;;;;;;30.29;42.37;98032.50;5127047;27;20039;-92
2022/08/15 11:29:35;;;;;;;8.10;5.68;;;;;;;30.31;42.18;98021.38;5120986;27;20043;-91
2022/08/15 11:32:01;;;;;;;7.75;5.47;;;;;;;30.40;41.12;98027.63;5127112;27;20050;-91
2022/08/15 11:34:29;;;;;;;8.30;5.20;;;;;;;30.69;41.37;98018.59;5125869;27;20560;-91
2022/08/15 11:37:01;;;;;;;7.18;5.13;;;;;;;30.74;40.91;98029.84;5126312;27;20063;-90
2022/08/15 11:39:30;;;;;;;8.88;5.30;;;;;;;30.83;40.14;98019.63;5129545;27;20039;-92
2022/08/15 11:42:00;;;;;;;8.65;5.15;;;;;;;30.85;40.53;98006.56;5125865;27;20046;-91
2022/08/15 11:44:37;;;;;;;7.22;5.72;;;;;;;30.83;40.14;98000.41;5119699;27;20039;-93
2022/08/15 11:47:05;;;;;;;7.25;5.22;;;;;;;30.50;39.99;98003.53;5126450;27;20471;-92
2022/08/15 11:49:34;;;;;;;9.90;5.72;;;;;;;29.96;41.39;98006.41;5131334;27;20043;-90
2022/08/15 11:52:07;;;;;;;6.80;5.28;;;;;;;30.09;41.37;98015.69;5121989;27;20080;-93
2022/08/15 11:54:34;;;;;;;7.55;5.20;;;;;;;30.42;40.91;98028.28;5123918;27;20043;-91
2022/08/15 11:57:02;;;;;;;8.05;5.47;;;;;;;30.54;40.70;98009.50;5128058;27;20050;-91
2022/08/15 11:59:30;;;;;;;7.05;5.20;;;;;;;30.47;40.71;98007.50;5129314;27;20031;-90